Time;durP1;ratioP1;P1;durP2;ratioP2;P2;SDS_P1;SDS_P2;PMS_P1;PMS_P2;Temp;Humidity;BMP_temperature;BMP_pressure;BME280_temperature;BME280_humidity;BME280_pressure;Samples;Min_cycle;Max_cycle;Signal;HPM_P1;HPM_P2
2022/11/16 00:00:12;;;;;;;10.52;1.27;;;8.70;99.90;;;7.93;100.00;99556.41;4220486;28;20039;-79
2022/11/16 00:02:14;;;;;;;12.40;2.00;;;8.80;99.90;;;7.90;100.00;99551.47;4221584;28;20402;-79
2022/11/16 00:04:14;;;;;;;14.40;1.95;;;8.80;99.90;;;7.94;100.00;99537.88;4221551;28;20027;-79
2022/11/16 00:06:16;;;;;;;12.52;1.70;;;8.80;99.90;;;7.93;100.00;99559.84;4221321;28;20380;-79
2022/11/16 00:08:17;;;;;;;10.32;1.98;;;8.80;99.90;;;7.92;100.00;99558.19;4221483;28;20032;-79
2022/11/16 00:10:18;;;;;;;11.50;1.75;;;8.80;99.90;;;7.84;100.00;99545.09;4220156;28;20031;-79
2022/11/16 00:12:19;;;;;;;9.93;1.50;;;8.80;99.90;;;7.84;100.00;99547.72;4220159;28;20028;-79
2022/11/16 00:14:22;;;;;;;4.47;1.95;;;8.70;99.90;;;7.81;100.00;99542.81;4221251;28;20036;-79
2022/11/16 00:16:23;;;;;;;9.30;1.53;;;8.70;99.90;;;7.78;100.00;99548.38;4254385;27;20026;-79
2022/11/16 00:18:24;;;;;;;8.38;1.60;;;8.70;99.90;;;7.80;100.00;99541.97;4220325;28;20083;-79
2022/11/16 00:20:25;;;;;;;10.32;2.00;;;8.70;99.90;;;7.79;100.00;99550.03;4220099;28;20491;-78
2022/11/16 00:22:25;;;;;;;8.63;1.50;;;8.70;99.90;;;7.72;100.00;99539.38;4253803;27;20034;-79
2022/11/16 00:24:26;;;;;;;13.23;1.83;;;8.70;99.90;;;7.70;100.00;99545.78;4220153;28;20027;-79
2022/11/16 00:26:28;;;;;;;15.93;2.88;;;8.60;99.90;;;7.72;100.00;99542.00;4221240;28;20028;-79
2022/11/16 00:28:28;;;;;;;17.67;2.28;;;8.60;99.90;;;7.73;100.00;99541.03;4236676;28;20073;-78
2022/11/16 00:30:29;;;;;;;7.38;1.23;;;8.60;99.90;;;7.73;100.00;99545.47;4221212;28;20020;-78
2022/11/16 00:32:30;;;;;;;11.57;2.03;;;8.60;99.90;;;7.72;100.00;99543.81;4221236;28;20028;-79
2022/11/16 00:34:31;;;;;;;5.57;1.17;;;8.60;99.90;;;7.64;100.00;99531.53;4221087;28;20031;-79
2022/11/16 00:36:32;;;;;;;5.75;1.20;;;8.60;99.90;;;7.61;100.00;99529.25;4253590;27;20440;-78
2022/11/16 00:38:33;;;;;;;8.75;1.35;;;8.50;99.90;;;7.62;100.00;99533.47;4219724;28;20429;-79
2022/11/16 00:40:34;;;;;;;9.95;1.90;;;8.50;99.90;;;7.60;100.00;99524.97;4221117;28;20052;-79
2022/11/16 00:42:35;;;;;;;8.27;1.58;;;8.50;99.90;;;7.61;100.00;99525.78;4253713;27;20019;-78
2022/11/16 00:44:36;;;;;;;14.02;1.60;;;8.50;99.90;;;7.57;100.00;99520.06;4221129;28;20043;-79
2022/11/16 00:46:37;;;;;;;9.55;1.75;;;8.50;99.90;;;7.58;100.00;99516.44;4253531;27;20478;-78
2022/11/16 00:48:38;;;;;;;12.00;1.63;;;8.50;99.90;;;7.59;100.00;99515.44;4219687;28;20119;-78
2022/11/16 00:50:39;;;;;;;10.38;1.63;;;8.50;99.90;;;7.63;100.00;99524.63;4253596;27;20483;-79
2022/11/16 00:52:40;;;;;;;9.20;1.55;;;8.50;99.90;;;7.62;100.00;99520.38;4220612;28;20032;-78
2022/11/16 00:54:41;;;;;;;11.90;1.60;;;8.50;99.90;;;7.58;100.00;99507.75;4220845;28;20364;-79
2022/11/16 00:56:41;;;;;;;7.13;1.20;;;8.50;99.90;;;7.59;100.00;99518.06;4219383;28;20048;-78
2022/11/16 00:58:42;;;;;;;14.80;1.90;;;8.50;99.90;;;7.63;100.00;99518.56;4219579;28;20031;-78
2022/11/16 01:00:43;;;;;;;9.80;1.65;;;8.50;99.90;;;7.62;100.00;99511.66;4220631;28;20403;-78
2022/11/16 01:02:44;;;;;;;8.52;2.10;;;8.50;99.90;;;7.65;100.00;99514.78;4253395;27;20076;-78
2022/11/16 01:04:45;;;;;;;6.47;1.80;;;8.50;99.90;;;7.65;100.00;99506.91;4219726;28;20024;-78
2022/11/16 01:06:46;;;;;;;13.20;1.70;;;8.50;99.90;;;7.66;100.00;99519.06;4253223;27;20053;-79
2022/11/16 01:08:47;;;;;;;14.93;1.50;;;8.50;99.90;;;7.62;100.00;99502.00;4218176;28;20511;-78
2022/11/16 01:10:48;;;;;;;14.55;1.80;;;8.50;99.90;;;7.65;100.00;99509.53;4220532;28;20023;-78
2022/11/16 01:12:50;;;;;;;8.30;1.25;;;8.50;99.90;;;7.64;100.00;99507.91;4220312;28;20046;-79
2022/11/16 01:14:51;;;;;;;11.13;1.95;;;8.50;99.90;;;7.59;100.00;99491.00;4219084;28;20020;-78
2022/11/16 01:16:52;;;;;;;12.40;1.73;;;8.50;99.90;;;7.62;100.00;99507.25;4219261;28;20024;-78
2022/11/16 01:18:54;;;;;;;11.85;1.98;;;8.50;99.90;;;7.55;100.00;99498.41;4219489;28;20024;-78
2022/11/16 01:20:55;;;;;;;13.77;2.50;;;8.50;99.90;;;7.52;100.00;99495.31;4219100;28;20115;-79
2022/11/16 01:22:56;;;;;;;9.98;2.10;;;8.50;99.90;;;7.53;100.00;99489.88;4220183;28;20021;-79
2022/11/16 01:24:57;;;;;;;9.05;1.50;;;8.50;99.90;;;7.56;100.00;99479.03;4220313;28;20032;-78
2022/11/16 01:26:58;;;;;;;11.15;1.63;;;8.50;99.90;;;7.58;100.00;99489.38;4252988;27;20034;-78
2022/11/16 01:28:59;;;;;;;11.60;1.90;;;8.50;99.90;;;7.58;100.00;99490.22;4220039;28;20473;-78
2022/11/16 01:31:00;;;;;;;14.93;1.75;;;8.40;99.90;;;7.52;100.00;99490.88;4218980;28;20175;-79
2022/11/16 01:33:01;;;;;;;10.73;2.00;;;8.40;99.90;;;7.52;100.00;99493.50;4220180;28;20024;-79
2022/11/16 01:35:04;;;;;;;13.90;1.90;;;8.40;99.90;;;7.54;100.00;99483.66;4218893;28;20074;-79
2022/11/16 01:37:05;;;;;;;10.82;2.63;;;8.40;99.90;;;7.52;100.00;99472.50;4219795;28;20441;-79
2022/11/16 01:39:06;;;;;;;9.77;1.95;;;8.40;99.90;;;7.57;100.00;99483.31;4252979;27;20032;-79
2022/11/16 01:41:07;;;;;;;12.40;2.33;;;8.40;99.90;;;7.59;100.00;99473.47;4220085;28;20503;-79
2022/11/16 01:43:23;;;;;;;11.88;2.05;;;8.50;99.90;;;7.60;100.00;99472.47;4252731;27;20023;-79
2022/11/16 01:45:40;;;;;;;13.35;3.53;;;8.50;99.90;;;7.66;100.00;99476.25;4252777;27;20110;-78
2022/11/16 01:47:40;;;;;;;6.57;1.30;;;8.50;99.90;;;7.62;100.00;99467.88;4252090;27;20102;-78
2022/11/16 01:49:50;;;;;;;12.70;1.63;;;8.50;99.90;;;7.69;100.00;99484.59;4218477;28;20090;-78
2022/11/16 01:51:57;;;;;;;9.85;2.22;;;8.50;99.90;;;7.66;100.00;99477.06;4218698;28;20086;-79
2022/11/16 01:54:00;;;;;;;13.52;1.98;;;8.50;99.90;;;7.72;100.00;99476.38;4218680;28;20035;-79
2022/11/16 01:56:01;;;;;;;14.45;1.90;;;8.50;99.90;;;7.69;100.00;99474.09;4201785;28;20059;-78
2022/11/16 01:58:03;;;;;;;16.42;1.92;;;8.60;99.90;;;7.63;100.00;99468.69;4219704;28;20378;-78
2022/11/16 02:00:08;;;;;;;10.68;2.42;;;8.50;99.90;;;7.60;100.00;99464.63;4218306;28;20054;-78
2022/11/16 02:02:09;;;;;;;12.55;2.53;;;8.50;99.90;;;7.64;100.00;99463.28;4218322;28;20020;-79
2022/11/16 02:04:11;;;;;;;10.65;1.55;;;8.50;99.90;;;7.64;100.00;99465.91;4218532;28;20031;-79
2022/11/16 02:06:15;;;;;;;15.45;2.25;;;8.50;99.90;;;7.70;100.00;99473.13;4218151;28;20035;-79
2022/11/16 02:12:00;;;;;;;7.60;2.13;;;8.60;99.90;;;7.75;100.00;99476.06;4219608;28;20043;-79
2022/11/16 02:15:07;;;;;;;14.07;2.10;;;8.60;99.90;;;7.77;100.00;99471.44;4167891;28;20033;-79
2022/11/16 02:17:17;;;;;;;;;;;8.70;99.90;;;7.75;100.00;99464.72;4152160;28;20044;-79
2022/11/16 02:20:13;;;;;;;14.85;4.07;;;8.70;99.90;;;7.86;100.00;99460.91;4193177;28;19907;-79
2022/11/16 02:22:56;;;;;;;12.50;2.42;;;8.70;99.90;;;7.98;100.00;99464.78;4219190;28;20161;-79
2022/11/16 02:26:09;;;;;;;17.20;3.13;;;8.80;99.90;;;8.05;100.00;99458.72;4219460;28;20024;-79
2022/11/16 02:28:45;;;;;;;10.63;2.65;;;8.90;99.90;;;8.08;100.00;99452.28;4200733;28;20060;-79
2022/11/16 02:30:51;;;;;;;17.67;2.38;;;8.90;99.90;;;8.03;100.00;99449.38;4215378;28;20065;-79
2022/11/16 02:33:07;;;;;;;17.77;2.42;;;8.90;99.90;;;8.03;100.00;99438.88;4234432;28;20020;-79
2022/11/16 02:35:28;;;;;;;9.35;2.65;;;8.90;99.90;;;8.05;100.00;99439.50;4249426;27;20394;-79
2022/11/16 02:37:36;;;;;;;12.93;1.45;;;8.90;99.90;;;8.04;100.00;99433.44;4250472;27;20027;-79
2022/11/16 02:39:39;;;;;;;9.57;2.17;;;8.90;99.90;;;8.06;100.00;99435.91;4251416;27;20034;-79
2022/11/16 02:41:44;;;;;;;13.98;2.53;;;9.00;99.90;;;8.07;100.00;99438.34;4251796;27;20121;-79
2022/11/16 02:43:53;;;;;;;11.85;2.42;;;9.00;99.90;;;8.10;100.00;99434.53;4251294;27;20027;-79
2022/11/16 02:46:00;;;;;;;16.60;2.53;;;9.00;99.90;;;8.16;100.00;99442.56;4234072;28;20114;-79
2022/11/16 02:48:19;;;;;;;18.83;2.47;;;9.00;99.90;;;8.27;100.00;99444.00;4217827;28;20024;-79
2022/11/16 02:50:22;;;;;;;11.82;1.85;;;9.10;99.90;;;8.36;100.00;99434.28;4232854;28;20114;-79
2022/11/16 02:52:26;;;;;;;15.35;2.13;;;9.20;99.90;;;8.57;100.00;99450.25;4251455;27;20019;-79
2022/11/16 02:54:27;;;;;;;;;;;9.30;99.90;;;8.57;100.00;99437.91;4251712;27;20113;-79
2022/11/16 02:56:29;;;;;;;11.77;2.47;;;9.50;99.90;;;8.71;100.00;99441.59;4219128;28;19908;-79
2022/11/16 02:58:30;;;;;;;14.38;2.72;;;9.60;99.90;;;8.79;100.00;99444.16;4251846;27;20102;-79
2022/11/16 03:00:35;;;;;;;15.95;1.90;;;9.60;99.90;;;8.86;100.00;99450.34;4218901;28;20107;-80
2022/11/16 03:03:08;;;;;;;15.18;3.63;;;9.70;99.90;;;8.90;100.00;99446.34;4251535;27;20023;-80
2022/11/16 03:05:30;;;;;;;15.85;2.30;;;9.80;99.90;;;9.14;100.00;99448.00;4217065;28;20134;-80
2022/11/16 03:07:49;;;;;;;17.17;3.45;;;9.90;99.90;;;9.16;100.00;99435.47;4248396;27;20015;-80
2022/11/16 03:09:53;;;;;;;13.20;2.13;;;10.00;99.90;;;9.25;100.00;99424.69;4248461;27;20027;-80
2022/11/16 03:11:58;;;;;;;14.35;1.85;;;10.10;99.90;;;9.31;100.00;99425.78;4218733;28;20012;-79
2022/11/16 03:14:05;;;;;;;15.27;2.35;;;10.20;99.90;;;9.32;100.00;99430.84;4219048;28;20111;-80
2022/11/16 03:16:21;;;;;;;14.25;1.95;;;10.20;99.90;;;9.30;100.00;99419.69;4250740;27;20583;-79
2022/11/16 03:18:27;;;;;;;16.45;2.50;;;10.20;99.90;;;9.33;100.00;99421.97;4233186;28;20122;-80
2022/11/16 03:20:33;;;;;;;18.42;2.95;;;10.20;99.90;;;9.42;100.00;99422.69;4217521;28;20048;-80
2022/11/16 03:22:41;;;;;;;17.13;2.28;;;10.20;99.90;;;9.38;100.00;99419.63;4250918;27;20054;-79
2022/11/16 03:24:43;;;;;;;23.13;3.45;;;10.20;99.90;;;9.39;100.00;99409.91;4218599;28;20032;-79
2022/11/16 03:27:12;;;;;;;12.63;1.75;;;10.20;99.90;;;9.33;100.00;99413.25;4251262;27;20496;-79
2022/11/16 03:29:30;;;;;;;11.55;1.85;;;10.20;99.90;;;9.28;100.00;99410.34;4249702;27;20078;-79
2022/11/16 03:31:46;;;;;;;15.75;2.75;;;10.20;99.90;;;9.30;100.00;99408.34;4250237;27;20107;-79
2022/11/16 03:33:52;;;;;;;14.45;2.40;;;10.20;99.90;;;9.34;100.00;99401.75;4249541;28;20031;-79
2022/11/16 03:36:23;;;;;;;13.25;2.40;;;10.20;99.90;;;9.34;100.00;99401.75;4233721;28;20030;-79
2022/11/16 03:38:26;;;;;;;14.95;2.10;;;10.20;99.90;;;9.26;100.00;99400.00;4248054;28;20027;-79
2022/11/16 03:40:31;;;;;;;11.43;1.83;;;10.20;99.90;;;9.16;100.00;99394.19;4251160;28;20054;-79
2022/11/16 03:42:33;;;;;;;16.75;2.70;;;10.10;99.90;;;9.20;100.00;99402.56;4250701;28;20058;-79
2022/11/16 03:44:35;;;;;;;14.00;2.42;;;10.10;99.90;;;9.23;100.00;99400.34;4251121;28;20039;-79
2022/11/16 03:46:37;;;;;;;12.30;2.20;;;10.10;99.90;;;9.37;100.00;99399.56;4250957;28;20066;-79
2022/11/16 03:48:39;;;;;;;18.50;2.05;;;10.20;99.90;;;9.36;100.00;99390.03;4251178;28;20055;-79
2022/11/16 03:50:41;;;;;;;11.77;2.53;;;10.20;99.90;;;9.36;100.00;99395.31;4251056;28;20023;-79
2022/11/16 03:52:42;;;;;;;14.05;2.45;;;10.20;99.90;;;9.45;100.00;99394.22;4250423;28;20541;-79
2022/11/16 03:54:43;;;;;;;15.55;1.92;;;10.20;99.90;;;9.44;100.00;99402.28;4216855;28;20031;-79
2022/11/16 03:56:43;;;;;;;14.73;2.28;;;10.30;99.90;;;9.44;100.00;99404.91;4251175;28;20035;-79
2022/11/16 03:58:44;;;;;;;22.40;2.30;;;10.30;99.90;;;9.46;100.00;99395.03;4218347;28;20032;-79
2022/11/16 04:00:45;;;;;;;13.77;2.20;;;10.30;99.90;;;9.38;100.00;99366.16;4233808;28;20028;-79
2022/11/16 04:02:46;;;;;;;14.15;1.60;;;10.40;99.90;;;9.50;100.00;99385.75;4218251;28;20517;-79
2022/11/16 04:26:08;;;;;;;18.70;2.50;;;10.70;99.90;;;9.79;100.00;99421.81;4245966;28;20421;-79
2022/11/16 04:28:12;;;;;;;15.93;2.60;;;10.70;99.90;;;9.80;100.00;99408.44;4250591;28;20027;-80
2022/11/16 04:30:14;;;;;;;15.90;3.13;;;10.70;99.90;;;9.79;100.00;99422.63;4250123;28;20074;-80
2022/11/16 04:39:14;;;;;;;14.18;3.00;;;10.40;99.90;;;9.36;100.00;99399.75;4217832;28;20039;-79
2022/11/16 04:43:34;;;;;;;17.73;2.60;;;10.20;99.90;;;9.26;100.00;99414.97;4212676;28;20089;-79
2022/11/16 04:47:55;;;;;;;16.42;2.45;;;10.10;99.90;;;9.17;100.00;99405.53;4221113;28;20521;-79
2022/11/16 04:49:56;;;;;;;21.10;3.00;;;10.10;99.90;;;9.17;100.00;99416.88;4219502;28;20024;-79
2022/11/16 04:51:57;;;;;;;13.05;2.45;;;10.10;99.90;;;9.18;100.00;99415.06;4202702;28;20491;-79
2022/11/16 04:53:58;;;;;;;19.40;2.60;;;10.10;99.90;;;9.21;100.00;99422.59;4219692;28;20020;-79
2022/11/16 04:55:59;;;;;;;16.92;3.25;;;10.10;99.90;;;9.35;100.00;99435.75;4219775;28;20056;-79
2022/11/16 04:58:00;;;;;;;20.17;2.85;;;10.20;99.90;;;9.33;100.00;99421.16;4221042;28;20024;-79
2022/11/16 05:00:03;;;;;;;15.88;2.15;;;10.20;99.90;;;9.38;100.00;99424.06;4219605;28;20095;-79
2022/11/16 05:02:08;;;;;;;13.57;2.92;;;10.20;99.90;;;9.39;100.00;99420.44;4220597;28;20052;-80
2022/11/16 05:04:09;;;;;;;16.45;3.15;;;10.20;99.90;;;9.40;100.00;99395.75;4219371;28;20028;-79
2022/11/16 05:06:09;;;;;;;15.82;3.33;;;10.20;99.90;;;9.42;100.00;99401.66;4219144;28;20039;-79
2022/11/16 05:08:10;;;;;;;15.68;3.08;;;10.30;99.90;;;9.43;100.00;99387.50;4220596;28;20399;-79
2022/11/16 05:10:12;;;;;;;17.58;2.75;;;10.40;99.90;;;9.49;100.00;99394.66;4220560;28;20028;-79
2022/11/16 05:12:18;;;;;;;12.48;2.45;;;10.40;99.90;;;9.56;100.00;99398.19;4219474;28;20024;-79
2022/11/16 05:14:19;;;;;;;14.45;2.45;;;10.40;99.90;;;9.58;100.00;99398.03;4220379;28;20024;-79
2022/11/16 05:16:19;;;;;;;12.02;2.88;;;10.40;99.90;;;9.61;100.00;99398.47;4220534;28;20391;-80
2022/11/16 05:18:20;;;;;;;16.50;2.58;;;10.40;99.90;;;9.62;100.00;99399.28;4252464;27;20080;-79
2022/11/16 05:22:43;;;;;;;13.73;3.33;;;10.30;99.90;;;9.42;100.00;99399.03;4220129;28;20089;-79
2022/11/16 05:24:44;;;;;;;20.48;2.70;;;10.30;99.90;;;9.34;100.00;99389.41;4253076;27;20470;-80
2022/11/16 05:26:47;;;;;;;17.42;2.75;;;10.20;99.90;;;9.23;100.00;99386.38;4220544;28;20039;-79
2022/11/16 05:28:48;;;;;;;16.65;3.38;;;10.10;99.90;;;9.12;100.00;99381.56;4201624;28;20037;-79
2022/11/16 05:30:51;;;;;;;16.98;3.00;;;10.00;99.90;;;8.86;100.00;99372.28;4219109;28;20036;-79
2022/11/16 05:32:53;;;;;;;17.05;2.72;;;9.90;99.90;;;8.96;100.00;99400.16;4219031;28;20035;-79
2022/11/16 05:34:55;;;;;;;26.05;3.28;;;9.90;99.90;;;8.94;100.00;99402.94;4219196;28;20024;-79
2022/11/16 05:36:57;;;;;;;21.27;2.58;;;9.80;99.90;;;8.94;100.00;99402.94;4219761;28;20024;-79
2022/11/16 05:38:58;;;;;;;29.58;5.05;;;9.80;99.90;;;8.94;100.00;99416.09;4252435;27;20035;-79
2022/11/16 05:40:59;;;;;;;25.40;3.75;;;9.80;99.90;;;8.98;100.00;99421.81;4218940;28;20087;-79
2022/11/16 05:43:02;;;;;;;16.30;2.80;;;9.80;99.90;;;9.09;100.00;99431.91;4220240;28;20040;-79
2022/11/16 05:45:03;;;;;;;18.63;3.42;;;9.90;99.90;;;9.10;100.00;99437.00;4235678;28;20033;-79
2022/11/16 05:47:04;;;;;;;19.52;4.15;;;9.90;99.90;;;9.15;100.00;99431.19;4220052;28;20116;-80
2022/11/16 05:49:08;;;;;;;18.77;2.42;;;10.00;99.90;;;9.21;100.00;99427.84;4219896;28;20028;-79
2022/11/16 05:51:09;;;;;;;16.23;2.67;;;10.10;99.90;;;9.29;100.00;99419.88;4252010;27;20482;-79
2022/11/16 05:53:11;;;;;;;18.65;3.55;;;10.10;99.90;;;9.34;100.00;99413.09;4252638;27;20031;-79
2022/11/16 05:55:12;;;;;;;16.13;2.83;;;10.20;99.90;;;9.26;100.00;99402.63;4219499;28;20478;-79
2022/11/16 05:57:14;;;;;;;20.98;4.03;;;10.10;99.90;;;9.25;100.00;99397.56;4252711;27;20019;-80
2022/11/16 05:59:19;;;;;;;20.92;3.22;;;10.10;99.90;;;9.16;100.00;99390.75;4219745;28;20023;-79
2022/11/16 06:01:20;;;;;;;14.57;3.13;;;10.00;99.90;;;9.00;100.00;99375.94;4219682;28;20039;-79
2022/11/16 06:03:21;;;;;;;21.23;3.25;;;10.00;99.90;;;9.01;100.00;99384.66;4252483;27;20034;-79
2022/11/16 06:05:23;;;;;;;20.42;3.08;;;9.90;99.90;;;9.05;100.00;99370.94;4219608;28;20020;-79
2022/11/16 06:07:25;;;;;;;16.83;3.70;;;9.80;99.90;;;8.89;100.00;99377.19;4235113;28;20430;-79
2022/11/16 06:09:26;;;;;;;22.77;3.40;;;9.80;99.90;;;8.90;100.00;99388.50;4219378;28;20085;-79
2022/11/16 06:11:28;;;;;;;21.30;3.85;;;9.70;99.90;;;8.85;100.00;99391.69;4252273;27;20035;-79
2022/11/16 06:13:30;;;;;;;21.50;3.15;;;9.70;99.90;;;8.67;100.00;99372.78;4219542;28;20024;-79
2022/11/16 06:15:35;;;;;;;22.30;4.88;;;9.70;99.90;;;8.73;100.00;99382.59;4219505;28;20055;-79
2022/11/16 06:17:35;;;;;;;17.42;3.42;;;9.60;99.90;;;8.65;100.00;99392.34;4251136;27;20409;-79
2022/11/16 06:19:36;;;;;;;20.52;3.90;;;9.50;99.90;;;8.55;100.00;99391.75;4217322;28;20024;-78
2022/11/16 06:21:37;;;;;;;16.42;2.67;;;9.40;99.90;;;8.53;100.00;99406.91;4251930;27;20034;-78
2022/11/16 06:23:38;;;;;;;30.77;4.75;;;9.40;99.90;;;8.45;100.00;99399.91;4218033;28;20031;-79
2022/11/16 06:25:39;;;;;;;27.33;5.05;;;9.40;99.90;;;8.47;100.00;99397.91;4252004;27;20034;-79
2022/11/16 06:27:40;;;;;;;28.38;4.22;;;9.30;99.90;;;8.47;100.00;99397.09;4219540;28;20475;-79
2022/11/16 06:29:41;;;;;;;23.83;3.35;;;9.30;99.90;;;8.49;100.00;99401.16;4219257;28;20035;-79
2022/11/16 06:31:42;;;;;;;26.67;4.40;;;9.30;99.90;;;8.44;100.00;99408.78;4219105;28;20028;-79
2022/11/16 06:33:43;;;;;;;16.35;3.20;;;9.30;99.90;;;8.43;100.00;99412.38;4251730;27;20098;-79
2022/11/16 06:35:44;;;;;;;27.75;3.53;;;9.30;99.90;;;8.39;100.00;99411.13;4234622;28;20096;-79
2022/11/16 06:37:45;;;;;;;18.42;3.42;;;9.30;99.90;;;8.34;100.00;99421.31;4217843;28;20028;-79
2022/11/16 06:39:46;;;;;;;22.05;3.50;;;9.20;99.90;;;8.33;100.00;99419.69;4219098;28;20399;-79
2022/11/16 06:41:47;;;;;;;23.00;4.47;;;9.20;99.90;;;8.34;100.00;99429.19;4217892;28;20035;-79
2022/11/16 06:43:48;;;;;;;17.88;2.95;;;9.20;99.90;;;8.32;100.00;99426.75;4214856;28;20031;-79
2022/11/16 06:45:51;;;;;;;25.75;3.75;;;9.20;99.90;;;8.27;100.00;99417.72;4212436;28;20039;-79
2022/11/16 06:47:52;;;;;;;16.03;2.77;;;9.20;99.90;;;8.29;100.00;99426.28;4215503;28;20032;-79
2022/11/16 06:49:53;;;;;;;14.95;2.58;;;9.20;99.90;;;8.27;100.00;99430.88;4217318;28;20297;-79
2022/11/16 06:51:54;;;;;;;23.88;3.05;;;9.20;99.90;;;8.32;100.00;99442.50;4234412;28;20015;-79
2022/11/16 06:53:55;;;;;;;16.02;3.53;;;9.20;99.90;;;8.38;100.00;99440.19;4218912;28;20035;-79
2022/11/16 06:56:04;;;;;;;14.35;2.92;;;9.30;99.90;;;8.43;100.00;99454.44;4218941;28;20025;-79
2022/11/16 06:58:05;;;;;;;10.48;3.15;;;9.30;99.90;;;8.52;100.00;99456.00;4251333;27;20031;-79
2022/11/16 07:00:09;;;;;;;23.40;3.78;;;9.30;99.90;;;8.56;100.00;99456.50;4218795;28;20388;-79
2022/11/16 07:02:10;;;;;;;13.32;3.17;;;9.40;99.90;;;8.58;100.00;99462.38;4251315;27;20031;-79
2022/11/16 07:04:14;;;;;;;20.10;2.60;;;9.50;99.90;;;8.64;100.00;99473.03;4234316;28;20028;-80
2022/11/16 07:06:15;;;;;;;15.98;2.97;;;9.50;99.90;;;8.57;100.00;99464.19;4233191;28;20028;-80
2022/11/16 07:08:16;;;;;;;25.15;3.67;;;9.40;99.90;;;8.49;100.00;99459.00;4218776;28;20032;-80
2022/11/16 07:10:17;;;;;;;22.85;3.05;;;9.40;99.90;;;8.46;100.00;99456.72;4251380;27;20046;-80
2022/11/16 07:12:18;;;;;;;29.30;3.03;;;9.30;99.90;;;8.43;100.00;99457.06;4218530;28;20095;-80
2022/11/16 07:14:19;;;;;;;23.20;4.22;;;9.30;99.90;;;8.41;100.00;99445.91;4217102;28;20032;-79
2022/11/16 07:16:20;;;;;;;22.30;4.47;;;9.30;99.90;;;8.52;100.00;99457.81;4217711;28;20028;-80
2022/11/16 07:18:21;;;;;;;15.18;3.15;;;9.30;99.90;;;8.55;100.00;99457.47;4216351;28;20115;-80
2022/11/16 07:20:22;;;;;;;12.05;2.45;;;9.40;99.90;;;8.61;100.00;99454.97;4218649;28;20055;-79
2022/11/16 07:22:24;;;;;;;14.93;2.72;;;9.40;99.90;;;8.63;100.00;99452.19;4217219;28;20025;-80
2022/11/16 07:24:25;;;;;;;13.93;2.33;;;9.50;99.90;;;8.71;100.00;99460.00;4251298;27;20031;-79
2022/11/16 07:26:29;;;;;;;16.48;2.67;;;9.50;99.90;;;8.72;100.00;99449.28;4251335;27;20012;-80
2022/11/16 07:28:31;;;;;;;11.93;2.28;;;9.60;99.90;;;8.76;100.00;99465.53;4218150;28;20051;-79
2022/11/16 07:30:32;;;;;;;13.98;3.20;;;9.60;99.90;;;8.77;100.00;99485.59;4251049;28;20054;-79
2022/11/16 07:32:32;;;;;;;15.55;2.10;;;9.60;99.90;;;8.81;100.00;99500.03;4218596;28;20039;-79
2022/11/16 07:34:33;;;;;;;17.55;2.53;;;9.70;99.90;;;8.75;100.00;99483.13;4218092;28;20024;-80
2022/11/16 07:36:34;;;;;;;16.70;3.00;;;9.70;99.90;;;8.86;100.00;99469.59;4217042;28;20039;-80
2022/11/16 07:38:35;;;;;;;14.75;3.85;;;9.70;99.90;;;8.88;100.00;99478.09;4217264;28;20445;-80
2022/11/16 07:40:36;;;;;;;11.93;3.40;;;9.70;99.90;;;8.89;100.00;99484.19;4216231;28;20032;-80
2022/11/16 07:42:37;;;;;;;13.13;2.95;;;9.80;99.90;;;8.92;100.00;99488.28;4210211;28;20028;-80
2022/11/16 07:44:38;;;;;;;11.00;3.60;;;9.80;99.90;;;8.95;100.00;99475.59;4218505;28;20020;-80
2022/11/16 07:46:39;;;;;;;19.67;4.20;;;9.80;99.90;;;8.96;100.00;99479.84;4218358;28;20043;-80
2022/11/16 07:48:41;;;;;;;27.42;4.53;;;9.80;99.90;;;9.02;100.00;99476.50;4218348;28;20029;-79
2022/11/16 07:50:42;;;;;;;30.67;4.32;;;9.90;99.90;;;9.10;100.00;99463.31;4250638;28;20024;-80
2022/11/16 07:52:45;;;;;;;29.45;4.18;;;10.00;99.90;;;9.18;100.00;99465.03;4250971;28;20054;-80
2022/11/16 07:54:46;;;;;;;29.88;6.07;;;10.00;99.90;;;9.23;100.00;99463.50;4233765;28;20028;-80
2022/11/16 07:56:47;;;;;;;33.63;4.90;;;10.10;99.90;;;9.41;100.00;99471.88;4218438;28;20031;-79
2022/11/16 07:58:47;;;;;;;29.15;4.55;;;10.20;99.90;;;9.43;100.00;99455.94;4218381;28;20122;-80
2022/11/16 08:00:49;;;;;;;21.58;3.95;;;10.30;99.90;;;9.55;100.00;99462.38;4233811;28;20035;-80
2022/11/16 08:02:50;;;;;;;21.38;3.90;;;10.40;99.90;;;9.60;100.00;99454.75;4218256;28;20030;-80
2022/11/16 08:04:51;;;;;;;14.65;4.53;;;10.50;99.90;;;9.67;100.00;99455.69;4251030;28;20058;-80
2022/11/16 08:06:51;;;;;;;12.55;2.55;;;10.50;99.90;;;9.74;100.00;99453.13;4218285;28;20024;-80
2022/11/16 08:08:53;;;;;;;13.60;3.10;;;10.60;99.90;;;9.84;100.00;99461.56;4250838;28;20417;-79
2022/11/16 08:11:06;;;;;;;12.77;3.05;;;10.60;99.90;;;9.89;100.00;99449.47;4250877;27;20060;-79
2022/11/16 08:13:07;;;;;;;22.92;4.53;;;10.70;99.90;;;9.92;100.00;99441.22;4217184;28;20056;-79
2022/11/16 08:15:10;;;;;;;12.40;3.17;;;10.80;99.90;;;10.06;100.00;99439.56;4218237;28;20025;-79
2022/11/16 08:17:11;;;;;;;12.88;4.18;;;10.90;99.90;;;10.16;100.00;99444.56;4251158;27;20553;-78
2022/11/16 08:19:12;;;;;;;17.05;5.07;;;11.00;99.90;;;10.21;100.00;99436.94;4220353;28;20032;-79
2022/11/16 08:21:16;;;;;;;20.73;4.88;;;11.00;99.90;;;10.25;100.00;99438.19;4220925;28;20044;-78
2022/11/16 08:23:16;;;;;;;17.35;4.47;;;11.10;99.90;;;10.28;100.00;99438.63;4253802;27;20571;-78
2022/11/16 08:25:17;;;;;;;11.93;3.40;;;11.10;99.90;;;10.32;100.00;99439.09;4254011;27;20043;-78
2022/11/16 08:27:18;;;;;;;18.35;4.72;;;11.20;99.90;;;10.26;100.00;99430.09;4219828;28;20023;-78
2022/11/16 08:29:19;;;;;;;16.67;5.80;;;11.20;99.90;;;10.28;100.00;99432.53;4221188;28;20039;-79
2022/11/16 08:31:28;;;;;;;31.90;6.30;;;11.20;99.90;;;10.32;100.00;99436.44;4253960;27;20102;-79
2022/11/16 08:33:29;;;;;;;17.00;5.65;;;11.20;99.90;;;10.25;100.00;99427.66;4253992;27;20034;-79
2022/11/16 08:35:30;;;;;;;26.83;6.00;;;11.20;99.90;;;10.31;100.00;99417.19;4220409;28;20024;-79
2022/11/16 08:37:31;;;;;;;16.98;5.50;;;11.20;99.90;;;10.39;100.00;99411.00;4253726;27;20393;-78
2022/11/16 08:39:31;;;;;;;31.05;7.82;;;11.30;99.90;;;10.42;100.00;99407.97;4221061;28;20020;-80
2022/11/16 08:41:34;;;;;;;23.10;7.53;;;11.30;99.90;;;10.40;100.00;99402.88;4221012;28;20395;-79
2022/11/16 08:43:38;;;;;;;32.08;7.63;;;11.30;99.90;;;10.47;100.00;99387.97;4253068;27;20080;-79
2022/11/16 08:45:39;;;;;;;30.88;7.32;;;11.30;99.90;;;10.52;100.00;99396.09;4220712;28;20038;-79
2022/11/16 08:47:40;;;;;;;23.65;7.13;;;11.40;99.90;;;10.59;100.00;99398.00;4220888;28;20398;-79
2022/11/16 08:49:40;;;;;;;30.38;9.40;;;11.50;99.90;;;10.60;100.00;99389.09;4220156;28;20035;-79
2022/11/16 08:51:41;;;;;;;20.00;5.55;;;11.50;99.90;;;10.69;100.00;99393.22;4219252;28;20422;-80
2022/11/16 08:53:42;;;;;;;30.65;8.23;;;11.60;99.90;;;10.76;100.00;99400.19;4219398;28;20028;-79
2022/11/16 08:55:43;;;;;;;23.73;8.02;;;11.70;99.90;;;10.79;100.00;99402.44;4219441;28;20487;-79
2022/11/16 08:57:45;;;;;;;26.75;8.55;;;11.70;99.90;;;10.84;100.00;99392.13;4219546;28;20051;-79
2022/11/16 08:59:46;;;;;;;20.75;6.53;;;11.70;99.90;;;10.86;100.00;99376.94;4253431;27;20509;-79
2022/11/16 09:01:48;;;;;;;20.52;6.00;;;11.80;99.90;;;11.00;100.00;99391.84;4220764;28;20035;-79
2022/11/16 09:03:51;;;;;;;32.28;8.70;;;11.80;99.90;;;11.00;100.00;99386.59;4220657;28;20461;-79
2022/11/16 09:05:52;;;;;;;30.27;8.63;;;11.90;99.90;;;10.98;100.00;99382.50;4253167;27;20030;-79
2022/11/16 09:07:53;;;;;;;25.42;6.55;;;11.90;99.90;;;11.07;100.00;99392.72;4220456;28;20047;-79
2022/11/16 09:09:54;;;;;;;24.08;7.60;;;11.90;99.90;;;11.09;100.00;99384.59;4220561;28;20028;-79
2022/11/16 09:11:55;;;;;;;23.77;6.53;;;12.00;99.90;;;11.08;100.00;99381.16;4219073;28;20031;-79
2022/11/16 09:13:56;;;;;;;24.23;7.10;;;12.00;99.90;;;11.17;100.00;99387.09;4220639;28;20027;-79
2022/11/16 09:16:01;;;;;;;27.80;9.00;;;12.00;99.90;;;11.23;100.00;99391.59;4220425;28;20063;-79
2022/11/16 09:18:02;;;;;;;20.77;7.90;;;12.10;99.90;;;11.29;100.00;99390.84;4219773;28;20495;-79